Time;durP1;ratioP1;P1;durP2;ratioP2;P2;SDS_P1;SDS_P2;PMS_P1;PMS_P2;Temp;Humidity;BMP_temperature;BMP_pressure;BME280_temperature;BME280_humidity;BME280_pressure;Samples;Min_cycle;Max_cycle;Signal;HPM_P1;HPM_P2
2023/06/11 00:00:59;;;;;;;;;12.33;12.33;;;;;24.02;80.67;101067.66;5066157;28;49475;-79
2023/06/11 00:03:24;;;;;;;;;13.00;12.00;;;;;24.09;80.17;101090.38;5080341;28;45295;-78
2023/06/11 00:05:51;;;;;;;;;11.33;11.33;;;;;24.07;79.95;101086.16;5084453;28;45295;-79
2023/06/11 00:08:17;;;;;;;;;13.33;11.00;;;;;24.07;80.79;101092.41;5065611;28;45502;-79
2023/06/11 00:10:42;;;;;;;;;12.00;10.67;;;;;24.08;79.46;101110.31;5069549;28;45359;-79
2023/06/11 00:13:07;;;;;;;;;11.00;10.33;;;;;23.99;78.56;101077.94;5060901;28;45296;-79
2023/06/11 00:15:33;;;;;;;;;12.33;11.67;;;;;23.94;78.09;101069.44;5073626;28;45627;-79
2023/06/11 00:17:58;;;;;;;;;11.00;11.00;;;;;24.06;78.08;101097.94;5051453;28;45995;-79
2023/06/11 00:20:23;;;;;;;;;8.67;8.33;;;;;24.01;77.27;101092.16;5055554;28;45449;-79
2023/06/11 00:22:49;;;;;;;;;12.33;12.33;;;;;23.94;77.22;101091.06;5056873;28;47714;-79
2023/06/11 00:25:14;;;;;;;;;9.33;9.33;;;;;24.06;75.84;101095.25;5072430;28;45540;-79
2023/06/11 00:27:40;;;;;;;;;10.33;9.67;;;;;24.00;74.49;101088.59;5076435;28;45681;-78
2023/06/11 00:30:06;;;;;;;;;12.00;10.00;;;;;24.00;75.37;101101.25;5060901;28;45382;-79
2023/06/11 00:32:33;;;;;;;;;10.33;7.00;;;;;24.01;73.08;101101.13;5078731;28;45295;-78
2023/06/11 00:34:59;;;;;;;;;5.67;5.67;;;;;23.92;74.67;101099.31;5049919;28;45502;-79
2023/06/11 00:37:25;;;;;;;;;7.00;7.00;;;;;23.94;77.02;101104.56;5059958;28;45378;-79
2023/06/11 00:39:50;;;;;;;;;9.33;7.67;;;;;23.91;79.34;101127.34;5048688;28;45312;-79
2023/06/11 00:42:19;;;;;;;;;10.33;10.33;;;;;23.69;81.70;101084.53;5060044;28;45289;-79
2023/06/11 00:44:44;;;;;;;;;9.33;7.67;;;;;23.75;81.30;101100.97;5042130;28;45558;-80
2023/06/11 00:47:10;;;;;;;;;10.33;8.33;;;;;23.70;83.58;101102.41;5056602;28;45351;-79
2023/06/11 00:49:36;;;;;;;;;9.00;9.00;;;;;23.67;84.96;101103.56;5040042;28;45458;-79
2023/06/11 00:52:03;;;;;;;;;8.67;8.67;;;;;23.72;86.00;101116.63;5044910;28;45591;-79
2023/06/11 00:54:28;;;;;;;;;10.33;8.33;;;;;23.67;86.43;101127.03;5066538;28;45296;-79
2023/06/11 00:56:54;;;;;;;;;7.33;6.67;;;;;23.53;86.98;101103.19;5079731;28;45372;-79
2023/06/11 00:59:20;;;;;;;;;6.33;5.00;;;;;23.60;85.86;101121.34;5067440;28;45271;-79
2023/06/11 01:01:56;;;;;;;;;9.67;9.67;;;;;23.56;84.49;101122.66;5047439;28;45427;-79
2023/06/11 01:04:23;;;;;;;;;7.67;7.67;;;;;23.56;85.76;101124.53;5065675;28;45242;-79
2023/06/11 01:06:54;;;;;;;;;11.00;9.00;;;;;23.55;85.91;101123.66;5067176;28;48095;-79
2023/06/11 01:09:22;;;;;;;;;8.00;7.67;;;;;23.52;82.61;101121.25;5040682;28;45325;-79
2023/06/11 01:11:53;;;;;;;;;8.00;7.67;;;;;23.50;80.39;101119.69;5062759;28;45525;-79
2023/06/11 01:14:19;;;;;;;;;7.00;6.33;;;;;23.35;81.83;101098.56;5069466;28;45316;-79
2023/06/11 01:16:53;;;;;;;;;8.00;7.33;;;;;23.42;80.31;101117.75;5054628;28;47061;-79
2023/06/11 01:20:12;;;;;;;;;9.33;9.00;;;;;23.46;80.41;101121.81;5066021;28;45521;-79
2023/06/11 01:23:14;;;;;;;;;6.00;6.00;;;;;23.39;79.93;101106.34;5001312;28;45385;-79
2023/06/11 01:26:25;;;;;;;;;10.33;9.00;;;;;23.40;80.88;101114.31;5069695;28;45334;-79
2023/06/11 01:28:57;;;;;;;;;8.00;8.00;;;;;23.45;81.06;101124.69;5051336;28;45692;-79
2023/06/11 01:31:25;;;;;;;;;8.33;8.33;;;;;23.30;81.05;101100.81;5079482;28;45480;-79
2023/06/11 01:33:51;;;;;;;;;8.33;8.33;;;;;23.33;82.05;101102.38;5067468;28;45443;-79
2023/06/11 01:36:17;;;;;;;;;9.33;9.33;;;;;23.42;81.36;101119.59;5049279;28;45533;-79
2023/06/11 01:38:44;;;;;;;;;9.00;8.33;;;;;23.38;80.42;101105.50;5054911;28;46323;-79
2023/06/11 01:41:13;;;;;;;;;9.00;7.67;;;;;23.32;81.12;101104.25;5069128;28;45332;-79
2023/06/11 01:43:39;;;;;;;;;10.33;9.33;;;;;23.27;81.72;101094.88;5052021;28;45368;-79
2023/06/11 01:46:05;;;;;;;;;7.33;7.33;;;;;23.36;78.81;101102.94;5041081;28;45310;-79
2023/06/11 01:48:31;;;;;;;;;9.33;9.33;;;;;23.32;80.11;101093.44;5058927;28;46180;-80
2023/06/11 01:50:56;;;;;;;;;6.67;6.67;;;;;23.31;79.92;101097.13;5059050;28;45455;-80
2023/06/11 01:53:21;;;;;;;;;7.33;7.33;;;;;23.34;80.38;101104.94;5065287;28;45406;-79
2023/06/11 01:55:47;;;;;;;;;8.00;8.00;;;;;23.30;80.90;101108.91;5070181;28;45540;-79
2023/06/11 01:58:12;;;;;;;;;10.00;9.00;;;;;23.33;82.93;101105.94;5062969;28;45290;-79
2023/06/11 02:00:37;;;;;;;;;8.00;7.33;;;;;23.18;82.60;101080.41;5058960;28;45394;-79
2023/06/11 02:03:05;;;;;;;;;7.00;7.00;;;;;23.27;81.08;101097.56;5060439;28;46464;-79
2023/06/11 02:05:30;;;;;;;;;8.67;8.67;;;;;23.21;81.43;101088.22;5067227;28;45503;-78
2023/06/11 02:07:56;;;;;;;;;7.33;7.00;;;;;23.30;82.48;101105.38;5058100;28;45420;-79
2023/06/11 02:10:21;;;;;;;;;8.67;7.67;;;;;23.31;83.25;101102.53;5049708;28;45277;-79
2023/06/11 02:12:46;;;;;;;;;9.67;6.33;;;;;23.16;82.29;101085.13;5053905;28;45654;-78
2023/06/11 02:15:12;;;;;;;;;7.33;7.33;;;;;23.27;83.14;101103.81;5070171;28;57427;-79
2023/06/11 02:17:37;;;;;;;;;8.00;7.67;;;;;23.27;83.40;101108.34;5058189;28;45918;-79
2023/06/11 02:20:07;;;;;;;;;9.67;9.67;;;;;23.25;83.57;101097.72;5058035;28;45394;-78
2023/06/11 02:22:33;;;;;;;;;10.67;6.33;;;;;23.21;84.71;101098.16;5036766;28;45370;-79
2023/06/11 02:24:59;;;;;;;;;5.67;5.67;;;;;23.23;84.86;101091.59;5069461;28;45479;-79
2023/06/11 02:27:24;;;;;;;;;9.00;7.67;;;;;23.17;84.84;101089.50;5040465;28;45447;-79
2023/06/11 02:29:49;;;;;;;;;7.33;7.33;;;;;23.16;84.65;101092.34;5060703;28;45434;-78
2023/06/11 02:32:15;;;;;;;;;7.67;6.33;;;;;23.14;84.41;101095.19;5058683;28;45345;-78
2023/06/11 02:34:40;;;;;;;;;9.00;8.00;;;;;23.13;84.98;101101.59;5049187;28;45283;-78
2023/06/11 02:37:05;;;;;;;;;8.33;8.33;;;;;23.06;85.44;101086.13;5072532;28;45454;-79
2023/06/11 02:39:31;;;;;;;;;8.67;8.33;;;;;23.01;85.92;101081.16;5071334;28;45257;-79
2023/06/11 02:41:56;;;;;;;;;8.67;6.00;;;;;23.05;86.09;101084.41;5061975;28;45224;-79
2023/06/11 02:44:23;;;;;;;;;10.33;9.33;;;;;23.00;86.51;101089.41;5075824;28;45549;-79
2023/06/11 02:46:48;;;;;;;;;8.00;8.00;;;;;22.99;85.85;101085.00;5041390;28;47252;-79
2023/06/11 02:49:14;;;;;;;;;11.33;10.67;;;;;22.94;86.29;101080.03;5079311;28;45374;-79
2023/06/11 02:51:42;;;;;;;;;9.33;9.33;;;;;22.96;86.89;101086.16;5075417;28;45469;-79
2023/06/11 02:54:08;;;;;;;;;6.00;6.00;;;;;22.92;86.36;101078.47;5078034;28;45361;-79
2023/06/11 02:56:33;;;;;;;;;9.67;9.67;;;;;22.81;87.17;101071.41;5077910;28;45415;-79
2023/06/11 02:58:58;;;;;;;;;10.33;9.33;;;;;22.89;87.30;101086.88;5048766;28;45219;-79
2023/06/11 03:01:24;;;;;;;;;8.67;8.67;;;;;22.75;87.94;101056.66;5068245;28;45285;-79
2023/06/11 03:03:49;;;;;;;;;8.33;8.33;;;;;22.80;86.56;101083.19;5051719;28;45522;-78
2023/06/11 03:06:15;;;;;;;;;7.33;7.33;;;;;22.70;87.55;101066.19;5062757;28;47586;-79
2023/06/11 03:08:40;;;;;;;;;8.67;8.67;;;;;22.75;88.22;101074.69;5081881;28;45378;-79
2023/06/11 03:11:05;;;;;;;;;8.67;8.67;;;;;22.80;87.84;101088.59;5068322;28;45791;-79
2023/06/11 03:13:31;;;;;;;;;10.33;9.67;;;;;22.76;88.67;101074.53;5060093;28;45590;-79
2023/06/11 03:15:56;;;;;;;;;9.67;8.67;;;;;22.80;87.90;101086.75;5056408;28;47959;-79
2023/06/11 03:18:21;;;;;;;;;7.67;7.67;;;;;22.72;87.74;101083.06;5073783;28;45271;-79
2023/06/11 03:20:47;;;;;;;;;9.67;9.67;;;;;22.77;88.04;101080.78;5059130;28;45329;-79
2023/06/11 03:23:14;;;;;;;;;9.67;9.67;;;;;22.76;88.66;101085.34;5062171;28;45336;-78
2023/06/11 03:25:39;;;;;;;;;9.67;9.67;;;;;22.75;88.57;101093.56;5075035;28;46210;-78
2023/06/11 03:28:05;;;;;;;;;8.67;8.67;;;;;22.70;88.94;101085.06;5061266;28;45402;-78
2023/06/11 03:30:30;;;;;;;;;11.33;11.33;;;;;22.72;89.60;101080.34;5046865;28;45538;-79
2023/06/11 03:32:56;;;;;;;;;9.00;9.00;;;;;22.72;89.45;101094.69;5042414;28;45683;-78
2023/06/11 03:35:21;;;;;;;;;10.33;8.67;;;;;22.63;90.86;101079.34;5056440;28;50631;-78
2023/06/11 03:37:46;;;;;;;;;14.67;11.67;;;;;22.70;88.82;101099.41;5060242;28;45353;-78
2023/06/11 03:40:12;;;;;;;;;11.00;11.00;;;;;22.70;91.23;101099.41;5063272;28;45310;-78
2023/06/11 03:42:37;;;;;;;;;17.33;14.67;;;;;22.55;90.20;101071.09;5040063;28;45430;-79
2023/06/11 03:45:03;;;;;;;;;13.00;12.00;;;;;22.70;91.05;101099.41;5081274;28;45315;-79
2023/06/11 03:47:28;;;;;;;;;12.00;11.33;;;;;22.69;92.39;101096.81;5067502;28;45225;-79
2023/06/11 03:49:54;;;;;;;;;14.67;10.67;;;;;22.74;93.42;101097.25;5042749;28;45345;-79
2023/06/11 03:52:19;;;;;;;;;16.33;13.67;;;;;22.74;93.39;101108.88;5055872;28;45446;-79
2023/06/11 03:54:44;;;;;;;;;14.67;12.33;;;;;22.68;94.57;101092.41;5055011;28;45308;-78
2023/06/11 03:57:12;;;;;;;;;14.00;12.33;;;;;22.64;92.71;101081.03;5062477;28;45273;-79
2023/06/11 03:59:37;;;;;;;;;12.33;12.33;;;;;22.71;95.15;101097.53;5036666;28;45435;-79
2023/06/11 04:02:03;;;;;;;;;13.67;13.67;;;;;22.76;94.91;101101.50;5066727;28;45314;-79
2023/06/11 04:04:28;;;;;;;;;13.33;13.33;;;;;22.72;94.32;101089.31;5071117;28;45447;-79
2023/06/11 04:06:54;;;;;;;;;17.33;14.00;;;;;22.76;94.48;101101.50;5060272;28;45478;-79
2023/06/11 04:09:19;;;;;;;;;19.33;18.67;;;;;22.79;93.14;101098.53;5060791;28;45297;-79
2023/06/11 04:11:45;;;;;;;;;16.67;15.67;;;;;22.77;93.67;101097.81;5044725;28;45332;-79
2023/06/11 04:14:10;;;;;;;;;18.00;13.00;;;;;22.74;93.66;101092.69;5069901;28;45968;-79
2023/06/11 04:16:35;;;;;;;;;15.67;13.33;;;;;22.68;94.51;101082.50;5068238;28;45435;-79
2023/06/11 04:19:01;;;;;;;;;18.33;18.33;;;;;22.74;94.71;101092.69;5068845;28;45375;-78
2023/06/11 04:21:26;;;;;;;;;18.33;16.00;;;;;22.64;94.65;101082.91;5064187;28;45693;-79
2023/06/11 04:23:51;;;;;;;;;15.33;12.67;;;;;22.75;95.54;101098.94;5059843;28;45341;-78
2023/06/11 04:26:19;;;;;;;;;19.33;19.33;;;;;22.77;95.33;101100.50;5063191;28;45333;-79
2023/06/11 04:28:44;;;;;;;;;17.67;14.67;;;;;22.69;96.22;101100.38;5067074;28;45435;-78
2023/06/11 04:31:11;;;;;;;;;20.00;18.33;;;;;22.74;96.79;101113.44;5060646;28;45270;-78
2023/06/11 04:33:37;;;;;;;;;16.33;16.00;;;;;22.62;96.39;101087.56;5046569;28;45357;-79
2023/06/11 04:36:07;;;;;;;;;18.33;17.00;;;;;22.71;96.90;101108.31;5080556;28;45398;-79
2023/06/11 04:38:34;;;;;;;;;14.00;14.00;;;;;22.75;97.30;101112.44;5060734;28;45237;-79
2023/06/11 04:41:00;;;;;;;;;19.33;16.33;;;;;22.75;98.39;101112.44;5042246;28;45545;-79
2023/06/11 04:43:25;;;;;;;;;16.67;15.67;;;;;22.70;97.47;101106.63;5057760;28;45529;-78
2023/06/11 04:45:55;;;;;;;;;18.67;18.67;;;;;22.78;97.89;101121.09;5060562;28;45292;-79
2023/06/11 04:48:25;;;;;;;;;17.67;15.33;;;;;22.70;97.47;101101.22;5058232;28;45396;-79
2023/06/11 04:50:51;;;;;;;;;15.00;14.33;;;;;22.74;97.15;101113.44;5060046;28;45292;-79
2023/06/11 04:53:21;;;;;;;;;19.67;17.00;;;;;22.67;98.13;101096.13;5065773;28;46057;-79
2023/06/11 04:55:49;;;;;;;;;15.67;15.67;;;;;22.78;97.53;101114.84;5061947;28;45403;-78
2023/06/11 04:58:15;;;;;;;;;17.00;14.00;;;;;22.80;97.77;101120.97;5058869;28;45371;-79
2023/06/11 05:00:40;;;;;;;;;14.67;14.67;;;;;22.74;97.63;101111.56;5059197;28;45230;-78
2023/06/11 05:03:06;;;;;;;;;19.67;18.33;;;;;22.64;96.76;101097.22;5052908;28;46638;-78
2023/06/11 05:05:32;;;;;;;;;13.67;12.33;;;;;22.60;97.45;101085.03;5080459;28;45343;-78
2023/06/11 05:07:57;;;;;;;;;16.67;15.33;;;;;22.74;97.39;101116.97;5058348;28;45829;-78
2023/06/11 05:10:22;;;;;;;;;19.67;17.00;;;;;22.80;97.64;101119.13;5050458;28;52325;-78
2023/06/11 05:12:48;;;;;;;;;14.00;14.00;;;;;22.68;99.12;101095.97;5055414;28;45380;-79
2023/06/11 05:15:13;;;;;;;;;16.33;16.33;;;;;22.79;97.12;101103.06;5062247;28;45537;-79
2023/06/11 05:17:39;;;;;;;;;18.33;17.67;;;;;22.77;96.77;101105.06;5044603;28;45404;-79
2023/06/11 05:20:05;;;;;;;;;14.00;13.00;;;;;22.84;96.32;101108.88;5059823;28;45498;-78
2023/06/11 05:22:31;;;;;;;;;19.00;14.33;;;;;22.83;96.95;101104.50;5066291;28;46639;-79
2023/06/11 05:24:56;;;;;;;;;16.67;15.67;;;;;22.86;97.36;101112.28;5063112;28;45474;-78
2023/06/11 05:27:23;;;;;;;;;16.00;16.00;;;;;;;;5076514;28;45640;-79
2023/06/11 05:29:48;;;;;;;;;18.33;16.33;;;;;22.95;97.47;101114.13;5045557;28;45486;-79
2023/06/11 05:32:14;;;;;;;;;18.67;15.33;;;;;22.93;98.09;101102.63;5071772;28;45384;-79
2023/06/11 05:34:40;;;;;;;;;16.67;14.00;;;;;22.99;96.75;101117.38;5060840;28;46658;-79
2023/06/11 05:37:06;;;;;;;;;18.00;16.33;;;;;23.03;97.62;101116.97;5058941;28;45373;-78
2023/06/11 05:39:31;;;;;;;;;21.67;16.67;;;;;23.03;96.68;101114.25;5052912;28;45482;-79
2023/06/11 05:41:57;;;;;;;;;18.67;16.33;;;;;22.92;97.99;101094.66;5057052;28;47117;-79
2023/06/11 05:44:22;;;;;;;;;18.33;17.00;;;;;23.07;96.49;101120.22;5068236;28;45627;-79
2023/06/11 05:46:47;;;;;;;;;10.00;7.00;;;;;23.12;97.71;101126.88;5062354;28;45328;-79
2023/06/11 05:49:13;;;;;;;;;23.00;20.00;;;;;23.07;96.57;101104.84;5056862;28;45392;-79
2023/06/11 05:51:38;;;;;;;;;18.33;15.67;;;;;23.22;96.67;101130.41;5030690;28;46134;-79
2023/06/11 05:54:04;;;;;;;;;16.33;16.33;;;;;23.25;95.30;101118.47;5066539;28;45356;-80
2023/06/11 05:56:30;;;;;;;;;17.33;17.33;;;;;23.13;95.54;101090.81;5068901;28;45379;-79
2023/06/11 05:58:55;;;;;;;;;19.33;17.33;;;;;23.35;94.67;101122.84;5039181;28;45472;-78
2023/06/11 06:01:21;;;;;;;;;20.33;19.00;;;;;23.43;95.07;101129.41;5063037;28;45563;-79
2023/06/11 06:03:47;;;;;;;;;17.67;17.67;;;;;23.49;95.11;101123.41;5058879;28;45449;-79
2023/06/11 06:06:12;;;;;;;;;15.67;14.33;;;;;23.55;95.04;101114.72;5058924;28;45474;-78
2023/06/11 06:08:37;;;;;;;;;22.67;19.33;;;;;23.60;91.99;101121.34;5070899;28;45494;-78
2023/06/11 06:11:03;;;;;;;;;25.67;19.33;;;;;23.69;91.85;101128.56;5064505;28;45291;-78
2023/06/11 06:13:28;;;;;;;;;20.00;19.33;;;;;23.74;94.68;101126.28;5066276;28;45300;-78
2023/06/11 06:15:54;;;;;;;;;20.67;17.67;;;;;23.76;92.32;101129.69;5044895;28;45317;-78
2023/06/11 06:18:19;;;;;;;;;23.67;22.33;;;;;23.75;98.06;101122.59;5073767;28;45513;-79
2023/06/11 06:20:46;;;;;;;;;25.33;20.00;;;;;23.90;95.72;101125.63;5057490;28;45284;-79
2023/06/11 06:23:11;;;;;;;;;25.00;24.00;;;;;24.01;95.53;101135.41;5058130;28;45314;-78
2023/06/11 06:25:37;;;;;;;;;22.67;19.33;;;;;24.08;93.25;101140.06;5076184;28;45292;-78
2023/06/11 06:28:06;;;;;;;;;21.00;19.67;;;;;24.02;90.21;101132.53;5061396;28;45501;-78
2023/06/11 06:30:33;;;;;;;;;19.33;18.33;;;;;24.11;87.99;101150.56;5059058;28;47421;-78
2023/06/11 06:32:59;;;;;;;;;18.00;18.00;;;;;24.14;88.82;101139.47;5042938;28;45467;-79
2023/06/11 06:35:25;;;;;;;;;21.67;21.00;;;;;24.20;90.28;101143.41;5033097;28;45277;-78
2023/06/11 06:37:50;;;;;;;;;22.67;19.33;;;;;24.27;89.32;101133.72;5034151;28;45506;-79
2023/06/11 06:40:16;;;;;;;;;16.67;16.00;;;;;24.26;89.64;101134.69;5052111;28;46300;-78
2023/06/11 06:42:41;;;;;;;;;20.67;19.00;;;;;24.24;86.28;101120.50;5049485;28;45354;-78
2023/06/11 06:45:07;;;;;;;;;18.00;17.00;;;;;24.30;86.78;101136.97;5047991;28;45317;-78
2023/06/11 06:47:32;;;;;;;;;21.67;20.67;;;;;24.38;85.54;101128.91;5041291;28;45809;-78
2023/06/11 06:49:58;;;;;;;;;18.33;18.33;;;;;24.49;85.82;101132.41;5053528;28;51089;-78
2023/06/11 06:52:23;;;;;;;;;23.67;23.67;;;;;24.65;86.47;101143.38;5042824;28;45455;-78
2023/06/11 06:54:50;;;;;;;;;22.00;19.67;;;;;24.57;87.01;101121.69;5072135;28;45269;-78
2023/06/11 06:57:15;;;;;;;;;23.33;18.67;;;;;24.69;86.03;101139.38;5055392;28;45475;-78
2023/06/11 06:59:41;;;;;;;;;20.67;18.67;;;;;24.69;86.89;101124.00;5071575;28;45403;-79
2023/06/11 07:02:06;;;;;;;;;19.00;17.67;;;;;24.65;86.47;101109.06;5051598;28;50568;-79
2023/06/11 07:04:31;;;;;;;;;23.67;22.67;;;;;24.78;84.26;101124.91;5044216;28;45391;-79
2023/06/11 07:06:57;;;;;;;;;24.67;23.00;;;;;24.79;83.93;101132.03;5077917;28;45388;-79
2023/06/11 07:09:22;;;;;;;;;23.67;20.00;;;;;24.75;86.89;101123.38;5061536;28;51173;-79
2023/06/11 07:11:48;;;;;;;;;21.00;20.00;;;;;24.95;86.13;101147.56;5075355;28;45371;-79
2023/06/11 07:14:14;;;;;;;;;25.67;23.00;;;;;25.06;89.25;101153.59;5038851;28;45286;-79
2023/06/11 07:16:39;;;;;;;;;21.33;19.67;;;;;25.15;88.65;101166.19;5058100;28;45293;-79
2023/06/11 07:19:05;;;;;;;;;27.33;23.00;;;;;25.14;83.99;101166.34;5062445;28;45549;-79
2023/06/11 07:21:30;;;;;;;;;24.67;23.67;;;;;25.20;81.94;101174.69;5076006;28;45390;-79
2023/06/11 07:23:57;;;;;;;;;28.67;26.33;;;;;25.10;82.10;101164.94;5049212;28;45375;-79
2023/06/11 07:26:22;;;;;;;;;27.33;23.67;;;;;25.25;80.62;101185.03;5074282;28;45734;-79
2023/06/11 07:28:48;;;;;;;;;26.67;22.00;;;;;25.25;80.76;101177.78;5058814;28;46197;-79
2023/06/11 07:31:13;;;;;;;;;25.00;24.00;;;;;25.35;81.27;101183.94;5053078;28;45391;-79
2023/06/11 07:33:39;;;;;;;;;25.00;22.67;;;;;25.42;82.54;101169.75;5063772;28;45873;-80
2023/06/11 07:36:05;;;;;;;;;24.67;23.00;;;;;25.61;79.83;101150.63;5055608;28;46100;-79
2023/06/11 07:38:30;;;;;;;;;23.00;21.67;;;;;25.97;78.43;101184.69;5059147;28;45416;-80
2023/06/11 07:40:56;;;;;;;;;23.67;22.00;;;;;26.05;78.08;101173.84;5062999;28;45367;-80
2023/06/11 07:43:21;;;;;;;;;24.00;21.33;;;;;26.12;79.29;101177.63;5053282;28;45403;-80
2023/06/11 07:45:47;;;;;;;;;24.00;22.67;;;;;26.31;78.18;101162.97;5076097;28;55301;-80
2023/06/11 07:48:13;;;;;;;;;21.33;20.00;;;;;26.53;73.85;101172.38;5058766;28;47169;-80
2023/06/11 07:50:38;;;;;;;;;22.00;22.00;;;;;26.65;75.02;101173.72;5066848;28;45465;-80
2023/06/11 07:53:03;;;;;;;;;21.33;21.33;;;;;26.77;72.61;101175.94;5061173;28;46053;-79
2023/06/11 07:55:29;;;;;;;;;24.33;21.67;;;;;26.92;73.34;101184.31;5069340;28;45645;-79
2023/06/11 07:57:55;;;;;;;;;20.33;20.33;;;;;26.96;72.91;101172.13;5033506;28;48129;-79
2023/06/11 08:00:21;;;;;;;;;22.67;19.33;;;;;26.92;70.82;101173.47;5061889;28;45481;-79
2023/06/11 08:02:46;;;;;;;;;21.33;20.33;;;;;26.93;72.42;101170.56;5074036;28;45229;-79
2023/06/11 08:05:17;;;;;;;;;23.00;21.00;;;;;26.95;72.18;101170.41;5042204;28;45429;-78
2023/06/11 08:07:44;;;;;;;;;21.00;19.33;;;;;27.06;74.71;101172.78;5074579;28;47425;-78
2023/06/11 08:10:09;;;;;;;;;15.00;15.00;;;;;27.16;72.70;101164.47;5068352;28;45250;-79
2023/06/11 08:12:35;;;;;;;;;19.67;18.33;;;;;27.25;71.14;101166.16;5067113;28;45709;-77
2023/06/11 08:15:00;;;;;;;;;24.00;23.00;;;;;27.25;69.46;101169.72;5072826;28;45353;-78
2023/06/11 08:17:25;;;;;;;;;18.00;16.67;;;;;27.13;71.59;101146.63;5058987;28;45313;-79
2023/06/11 08:19:50;;;;;;;;;23.00;19.33;;;;;27.24;70.73;101168.03;5060757;28;45320;-80
2023/06/11 08:22:16;;;;;;;;;18.00;18.00;;;;;27.14;69.58;101161.91;5041764;28;45330;-80
2023/06/11 08:24:41;;;;;;;;;16.67;16.00;;;;;27.01;69.60;101158.88;5063416;28;47334;-80
2023/06/11 08:27:08;;;;;;;;;21.67;19.00;;;;;26.93;70.68;101157.00;5070721;28;47242;-79
2023/06/11 08:29:33;;;;;;;;;17.67;16.67;;;;;26.93;69.33;101146.13;5071970;28;45558;-79
2023/06/11 08:31:58;;;;;;;;;22.67;19.67;;;;;26.98;71.08;101158.34;5070344;28;45403;-79
2023/06/11 08:34:24;;;;;;;;;20.00;18.00;;;;;27.06;72.65;101153.75;5063567;28;45336;-79
2023/06/11 08:36:50;;;;;;;;;18.33;16.67;;;;;27.34;70.50;101156.97;5069318;28;45471;-80
2023/06/11 08:39:15;;;;;;;;;17.67;16.67;;;;;27.73;71.42;101152.50;5045724;28;45619;-80
2023/06/11 08:41:41;;;;;;;;;18.33;16.00;;;;;27.95;70.11;101142.72;5051574;28;45340;-80
2023/06/11 08:44:06;;;;;;;;;17.33;17.33;;;;;28.26;67.28;101159.97;5078355;28;45343;-80
2023/06/11 08:46:35;;;;;;;;;14.00;14.00;;;;;28.23;68.45;101143.16;5055192;28;47076;-80
2023/06/11 08:49:06;;;;;;;;;18.00;15.67;;;;;28.40;68.58;101150.19;5062779;28;45369;-80
2023/06/11 08:51:37;;;;;;;;;18.33;15.33;;;;;28.48;67.10;101152.00;5055386;28;45328;-79
2023/06/11 08:54:06;;;;;;;;;21.00;16.67;;;;;28.40;66.16;101126.53;5059085;28;45696;-80
2023/06/11 08:56:32;;;;;;;;;17.00;15.67;;;;;28.44;67.11;101141.47;5049122;28;45341;-80
2023/06/11 08:59:00;;;;;;;;;15.00;15.00;;;;;28.38;66.20;101133.19;5048375;28;45367;-80
2023/06/11 09:01:25;;;;;;;;;18.33;16.33;;;;;28.39;64.92;101149.34;5059511;28;45338;-80
2023/06/11 09:03:52;;;;;;;;;14.00;14.00;;;;;28.19;65.42;101149.97;5071903;28;45327;-80
2023/06/11 09:06:18;;;;;;;;;16.67;16.67;;;;;27.95;67.02;101129.97;5040733;28;48395;-80
2023/06/11 09:08:54;;;;;;;;;16.33;16.00;;;;;27.87;67.29;101154.50;5073539;28;45503;-80
2023/06/11 09:11:19;;;;;;;;;14.33;14.33;;;;;27.74;68.36;101154.19;5041816;28;45470;-80
2023/06/11 09:13:44;;;;;;;;;18.33;17.33;;;;;27.65;68.72;101151.69;5041218;28;45551;-80
2023/06/11 09:16:10;;;;;;;;;20.33;17.33;;;;;27.63;71.27;101159.16;5043815;28;52825;-79
2023/06/11 09:18:35;;;;;;;;;19.67;18.67;;;;;27.55;70.45;101151.03;5051354;28;45458;-81
2023/06/11 09:21:01;;;;;;;;;17.33;16.33;;;;;27.53;71.90;101144.91;5057779;28;45465;-80
2023/06/11 09:23:32;;;;;;;;;19.00;19.00;;;;;27.60;72.10;101168.50;5064687;28;45344;-80
2023/06/11 09:26:01;;;;;;;;;20.67;20.00;;;;;27.55;72.13;101170.06;5046505;28;45398;-81
2023/06/11 09:28:34;;;;;;;;;22.00;22.00;;;;;27.58;71.72;101161.56;5067956;28;45367;-80
2023/06/11 09:31:01;;;;;;;;;23.00;18.67;;;;;27.52;74.33;101164.97;5061156;28;45517;-79
2023/06/11 09:33:28;;;;;;;;;23.00;21.67;;;;;27.40;71.85;101173.44;5059208;28;45382;-81
2023/06/11 09:35:53;;;;;;;;;21.00;19.33;;;;;27.30;72.77;101174.63;5068738;28;46223;-80
2023/06/11 09:38:20;;;;;;;;;22.00;22.00;;;;;27.21;72.00;101171.09;5058460;28;45353;-81
2023/06/11 09:40:50;;;;;;;;;22.67;19.33;;;;;27.20;73.16;101192.97;5077783;28;45290;-81
2023/06/11 09:43:21;;;;;;;;;25.00;25.00;;;;;27.14;73.18;101197.22;5059550;28;45408;-81
2023/06/11 09:45:52;;;;;;;;;25.00;23.33;;;;;27.10;74.59;101198.56;5063624;28;45366;-81
2023/06/11 09:48:18;;;;;;;;;27.00;24.67;;;;;27.09;75.67;101191.47;5058360;28;45367;-80
2023/06/11 09:50:45;;;;;;;;;23.67;23.00;;;;;27.05;74.83;101194.69;5059267;28;45316;-81
2023/06/11 09:53:13;;;;;;;;;26.00;23.67;;;;;26.97;76.09;101178.38;5057101;28;45349;-81
2023/06/11 09:55:40;;;;;;;;;24.00;23.00;;;;;27.08;74.72;101197.91;5053907;28;45812;-81
2023/06/11 09:58:06;;;;;;;;;23.67;23.67;;;;;27.12;74.10;101196.56;5061047;28;45393;-81
2023/06/11 10:00:33;;;;;;;;;26.67;24.33;;;;;27.03;75.17;101192.13;5058358;28;45359;-81
2023/06/11 10:02:59;;;;;;;;;31.00;28.50;;;;;27.05;74.51;101211.81;5059000;28;45459;-82
2023/06/11 10:05:25;;;;;;;;;26.33;26.33;;;;;26.92;74.33;101206.91;5036337;28;46599;-81
2023/06/11 10:08:18;;;;;;;;;26.67;26.00;;;;;26.79;75.36;101211.94;5065346;28;45379;-81
2023/06/11 10:10:51;;;;;;;;;25.67;23.33;;;;;26.58;75.40;101186.25;5029083;28;45415;-81
2023/06/11 10:13:28;;;;;;;;;27.67;26.33;;;;;26.42;76.47;101198.78;5032475;28;45570;-81
2023/06/11 10:15:53;;;;;;;;;30.00;27.00;;;;;26.47;76.85;101205.59;5054672;28;46236;-81
2023/06/11 10:18:24;;;;;;;;;27.33;27.00;;;;;26.56;76.54;101218.16;5057185;28;45337;-81
2023/06/11 10:20:54;;;;;;;;;34.33;28.33;;;;;26.63;77.18;101200.19;5062678;28;45331;-81
2023/06/11 10:23:20;;;;;;;;;36.00;29.33;;;;;26.71;75.75;101208.34;5044164;28;45485;-81
2023/06/11 10:25:54;;;;;;;;;26.67;26.00;;;;;26.74;76.26;101222.44;5062315;28;46714;-81
2023/06/11 10:28:22;;;;;;;;;23.00;20.00;;;;;26.88;75.77;101218.25;5067932;28;45360;-80
2023/06/11 10:30:54;;;;;;;;;30.33;27.67;;;;;27.02;74.91;101219.47;5048750;28;45362;-81
2023/06/11 10:33:21;;;;;;;;;32.67;28.67;;;;;26.93;73.99;101207.72;5068310;28;45336;-81
2023/06/11 10:35:47;;;;;;;;;36.33;31.33;;;;;27.05;73.89;101219.13;5063701;28;45457;-81
2023/06/11 10:38:13;;;;;;;;;34.67;29.33;;;;;27.02;74.59;101216.75;5038752;28;45371;-81
2023/06/11 10:40:39;;;;;;;;;27.67;27.67;;;;;26.95;74.57;101199.41;5054916;28;45415;-82
2023/06/11 10:43:20;;;;;;;;;34.67;31.67;;;;;27.13;73.72;101209.09;5048474;28;45684;-81
2023/06/11 10:45:59;;;;;;;;;38.00;33.33;;;;;27.34;75.91;101220.31;5064554;28;45513;-81
2023/06/11 10:48:28;;;;;;;;;33.00;28.33;;;;;27.49;72.84;101195.22;5055922;28;45387;-81
2023/06/11 10:51:01;;;;;;;;;29.00;26.67;;;;;27.94;69.68;101212.56;5058539;28;45366;-81
2023/06/11 10:53:36;;;;;;;;;31.00;27.33;;;;;28.09;71.10;101212.75;5029608;28;45420;-81
2023/06/11 10:56:02;;;;;;;;;36.67;31.00;;;;;28.21;68.52;101203.16;5049480;28;45503;-81
2023/06/11 10:58:29;;;;;;;;;32.33;29.67;;;;;28.20;68.16;101182.44;5047845;28;45431;-81
2023/06/11 11:00:54;;;;;;;;;35.00;30.67;;;;;28.32;67.56;101220.97;5050777;28;45327;-81
2023/06/11 11:03:21;;;;;;;;;30.00;28.67;;;;;28.25;67.57;101215.38;5058470;28;45495;-81
2023/06/11 11:05:49;;;;;;;;;28.00;27.33;;;;;28.48;70.57;101214.59;5069240;28;46478;-80
2023/06/11 11:08:15;;;;;;;;;26.67;26.67;;;;;28.44;67.27;101186.88;5081160;28;45527;-81
2023/06/11 11:10:41;;;;;;;;;32.00;30.00;;;;;28.68;69.47;101211.28;5059850;28;45320;-80
2023/06/11 11:13:06;;;;;;;;;32.00;30.00;;;;;28.85;66.23;101192.97;5057948;28;45280;-81